Time;durP1;ratioP1;P1;durP2;ratioP2;P2;SDS_P1;SDS_P2;PMS_P1;PMS_P2;Temp;Humidity;BMP_temperature;BMP_pressure;BME280_temperature;BME280_humidity;BME280_pressure;Samples;Min_cycle;Max_cycle;Signal;HPM_P1;HPM_P2
2022/04/11 00:02:23;;;;;;;39.30;7.97;;;4.20;32.50;;;;;;5040347;28;20485;-59
2022/04/11 00:04:51;;;;;;;41.30;8.73;;;4.20;32.30;;;;;;5046804;28;21014;-59
2022/04/11 00:07:18;;;;;;;40.17;8.47;;;4.20;32.40;;;;;;5041227;28;20840;-59
2022/04/11 00:09:45;;;;;;;38.47;8.00;;;4.10;32.30;;;;;;5044162;28;20482;-59
2022/04/11 00:12:11;;;;;;;41.20;10.13;;;4.10;32.30;;;;;;5056355;28;20466;-58
2022/04/11 00:14:38;;;;;;;39.60;7.80;;;4.10;32.50;;;;;;5055566;28;20454;-60
2022/04/11 00:17:05;;;;;;;39.53;8.30;;;4.00;32.30;;;;;;5041346;28;20464;-60
2022/04/11 00:19:32;;;;;;;44.60;8.60;;;4.00;32.50;;;;;;5049658;28;20450;-59
2022/04/11 00:22:00;;;;;;;40.70;9.33;;;4.00;32.50;;;;;;5038379;28;20458;-59
2022/04/11 00:24:26;;;;;;;38.97;7.60;;;4.00;32.80;;;;;;5045747;28;21025;-60
2022/04/11 00:26:53;;;;;;;41.97;9.30;;;4.00;32.60;;;;;;5041343;28;20454;-58
2022/04/11 00:29:20;;;;;;;40.40;8.67;;;4.00;32.50;;;;;;5045172;28;20482;-59
2022/04/11 00:31:47;;;;;;;39.57;9.13;;;4.00;32.40;;;;;;5036637;28;20487;-59
2022/04/11 00:34:14;;;;;;;40.80;9.70;;;4.00;32.70;;;;;;5044441;28;20482;-59
2022/04/11 00:36:40;;;;;;;39.77;9.07;;;4.00;32.60;;;;;;5042325;28;20545;-60
2022/04/11 00:39:08;;;;;;;40.93;9.10;;;4.00;32.70;;;;;;5040934;28;20846;-59
2022/04/11 00:41:35;;;;;;;41.27;9.70;;;4.00;32.70;;;;;;5043586;28;21043;-59
2022/04/11 00:44:02;;;;;;;42.10;9.97;;;4.00;32.60;;;;;;5045253;28;20482;-60
2022/04/11 00:46:29;;;;;;;42.40;11.23;;;4.00;32.90;;;;;;5044505;28;20458;-59
2022/04/11 00:48:55;;;;;;;46.77;11.20;;;4.00;33.30;;;;;;5043539;28;20485;-60
2022/04/11 00:51:24;;;;;;;39.80;9.23;;;4.00;33.30;;;;;;5034679;28;20459;-60
2022/04/11 00:53:53;;;;;;;38.90;8.47;;;4.00;33.50;;;;;;5047056;28;20477;-59
2022/04/11 00:56:21;;;;;;;44.20;8.97;;;4.00;33.50;;;;;;5045175;28;20467;-60
2022/04/11 00:58:49;;;;;;;40.83;9.37;;;4.00;33.60;;;;;;5049142;28;20462;-59
2022/04/11 01:01:17;;;;;;;42.77;9.90;;;4.00;33.70;;;;;;5047771;28;20528;-58
2022/04/11 01:03:43;;;;;;;40.90;9.50;;;4.00;33.90;;;;;;5048432;28;20474;-59
2022/04/11 01:06:10;;;;;;;40.67;9.13;;;4.00;34.30;;;;;;5047742;28;20454;-58
2022/04/11 01:08:37;;;;;;;39.70;8.63;;;4.00;34.00;;;;;;5045526;28;20787;-59
2022/04/11 01:11:04;;;;;;;40.20;8.73;;;4.00;33.70;;;;;;5047928;28;20473;-58
2022/04/11 01:13:32;;;;;;;43.53;10.07;;;4.00;33.50;;;;;;5049268;28;20482;-59
2022/04/11 01:16:00;;;;;;;41.13;8.90;;;4.00;33.70;;;;;;5048351;28;20470;-59
2022/04/11 01:18:28;;;;;;;44.63;10.50;;;4.00;33.20;;;;;;5045082;28;20469;-60
2022/04/11 01:20:55;;;;;;;40.00;9.33;;;4.00;33.00;;;;;;5047608;28;20959;-58
2022/04/11 01:23:23;;;;;;;38.77;8.40;;;4.00;33.10;;;;;;5050597;28;20846;-60
2022/04/11 01:25:51;;;;;;;41.17;8.43;;;3.90;32.90;;;;;;5047407;28;20462;-60
2022/04/11 01:28:19;;;;;;;40.07;9.10;;;3.90;32.80;;;;;;5047762;28;20466;-59
2022/04/11 01:30:47;;;;;;;41.67;8.83;;;3.90;32.60;;;;;;5049947;28;20481;-60
2022/04/11 01:33:19;;;;;;;41.47;9.47;;;3.90;32.70;;;;;;5044148;28;20553;-59
2022/04/11 01:35:46;;;;;;;41.87;9.60;;;3.80;32.70;;;;;;5048097;28;20474;-60
2022/04/11 01:38:13;;;;;;;40.87;9.50;;;3.80;32.60;;;;;;5046146;28;20979;-60
2022/04/11 01:40:49;;;;;;;39.70;9.90;;;3.80;32.70;;;;;;5045511;28;20454;-59
2022/04/11 01:43:16;;;;;;;41.90;10.07;;;3.70;33.00;;;;;;5045073;28;20478;-60
2022/04/11 01:45:43;;;;;;;41.30;10.27;;;3.60;32.80;;;;;;5051222;28;20464;-59
2022/04/11 01:48:10;;;;;;;42.37;10.60;;;3.60;33.00;;;;;;5042317;28;20469;-59
2022/04/11 01:50:37;;;;;;;42.20;10.00;;;3.60;33.20;;;;;;5048944;28;20492;-58
2022/04/11 01:53:08;;;;;;;42.63;10.00;;;3.50;33.20;;;;;;5050892;28;21046;-58
2022/04/11 01:55:35;;;;;;;43.83;11.60;;;3.50;33.40;;;;;;5044313;28;20465;-60
2022/04/11 01:58:04;;;;;;;41.57;10.03;;;3.50;33.30;;;;;;5046476;28;20548;-60
2022/04/11 02:00:31;;;;;;;43.33;11.03;;;3.50;33.50;;;;;;5046364;28;20490;-59
2022/04/11 02:02:59;;;;;;;41.40;10.93;;;3.50;33.60;;;;;;5043512;28;20462;-58
2022/04/11 02:05:25;;;;;;;41.80;10.60;;;3.40;33.70;;;;;;5061094;28;20508;-58
2022/04/11 02:07:52;;;;;;;40.27;10.07;;;3.40;33.90;;;;;;5045748;28;20458;-60
2022/04/11 02:10:19;;;;;;;42.90;10.70;;;3.40;33.80;;;;;;5046914;28;20485;-59
2022/04/11 02:12:47;;;;;;;44.97;11.00;;;3.40;33.70;;;;;;5044695;28;20479;-59
2022/04/11 02:15:15;;;;;;;43.23;12.07;;;3.30;34.00;;;;;;5046752;28;20584;-60
2022/04/11 02:17:42;;;;;;;49.70;15.17;;;3.30;34.30;;;;;;5048871;28;20462;-58
2022/04/11 02:20:11;;;;;;;46.43;12.73;;;3.20;34.60;;;;;;5045556;28;20458;-59
2022/04/11 02:22:45;;;;;;;45.10;13.57;;;3.20;34.80;;;;;;5047210;28;20488;-59
2022/04/11 02:25:12;;;;;;;50.70;13.57;;;3.20;34.90;;;;;;5054898;28;20464;-62
2022/04/11 02:27:39;;;;;;;45.70;14.10;;;3.20;34.80;;;;;;5044368;28;20462;-59
2022/04/11 02:30:07;;;;;;;46.07;13.93;;;3.20;35.10;;;;;;5045822;28;20484;-58
2022/04/11 02:32:35;;;;;;;42.53;11.10;;;3.20;35.10;;;;;;5041876;28;20481;-58
2022/04/11 02:35:02;;;;;;;46.93;12.43;;;3.20;35.00;;;;;;5037702;28;20463;-59
2022/04/11 02:37:29;;;;;;;44.53;12.63;;;3.20;35.00;;;;;;5046538;28;20466;-59
2022/04/11 02:39:56;;;;;;;45.90;11.57;;;3.20;35.20;;;;;;5044719;28;20449;-60
2022/04/11 02:42:23;;;;;;;43.50;12.20;;;3.30;35.70;;;;;;5045950;28;20465;-59
2022/04/11 02:44:49;;;;;;;46.07;12.37;;;3.30;35.40;;;;;;5047447;28;20487;-58
2022/04/11 02:47:16;;;;;;;46.30;12.27;;;3.30;35.40;;;;;;5047695;28;20850;-60
2022/04/11 02:49:44;;;;;;;42.43;10.40;;;3.30;35.60;;;;;;5043870;28;20491;-59
2022/04/11 02:52:11;;;;;;;42.10;11.30;;;3.30;35.60;;;;;;5047557;28;20488;-59
2022/04/11 02:54:38;;;;;;;44.83;12.47;;;3.30;35.50;;;;;;5048213;28;20453;-59
2022/04/11 02:57:06;;;;;;;41.60;11.00;;;3.30;35.60;;;;;;5051481;28;21159;-59
2022/04/11 02:59:33;;;;;;;45.20;10.47;;;3.20;35.50;;;;;;5046577;28;20486;-59
2022/04/11 03:02:00;;;;;;;43.60;11.90;;;3.30;35.50;;;;;;5046141;28;20535;-60
2022/04/11 03:04:27;;;;;;;42.20;11.03;;;3.30;35.50;;;;;;5044801;28;20485;-59
2022/04/11 03:06:56;;;;;;;42.40;11.87;;;3.30;35.50;;;;;;5047776;28;20917;-60
2022/04/11 03:09:23;;;;;;;43.33;11.53;;;3.20;35.40;;;;;;5045876;28;20501;-59
2022/04/11 03:11:50;;;;;;;46.20;12.83;;;3.20;35.50;;;;;;5043292;28;20466;-59
2022/04/11 03:14:16;;;;;;;43.30;11.13;;;3.20;35.60;;;;;;5042270;28;20516;-60
2022/04/11 03:16:43;;;;;;;42.73;10.90;;;3.20;35.60;;;;;;5046843;28;20469;-59
2022/04/11 03:19:10;;;;;;;43.27;11.40;;;3.20;35.60;;;;;;5039360;28;20841;-58
2022/04/11 03:21:37;;;;;;;42.60;11.00;;;3.20;35.70;;;;;;5045890;28;20462;-60
2022/04/11 03:24:06;;;;;;;42.80;11.57;;;3.10;35.80;;;;;;5046120;28;21035;-59
2022/04/11 03:26:33;;;;;;;45.77;11.03;;;3.20;36.00;;;;;;5040008;28;20856;-60
2022/04/11 03:28:59;;;;;;;43.10;11.50;;;3.10;35.60;;;;;;5049652;28;20527;-59
2022/04/11 03:31:26;;;;;;;43.40;11.23;;;3.10;35.80;;;;;;5043509;28;20485;-59
2022/04/11 03:33:54;;;;;;;42.27;10.70;;;3.10;35.70;;;;;;5044565;28;21064;-59
2022/04/11 03:36:21;;;;;;;41.20;10.50;;;3.10;35.70;;;;;;5045003;28;20458;-58
2022/04/11 03:38:48;;;;;;;42.67;11.70;;;3.00;35.70;;;;;;5042551;28;20477;-59
2022/04/11 03:41:16;;;;;;;42.67;10.57;;;3.00;35.70;;;;;;5047083;28;20442;-60
2022/04/11 03:43:43;;;;;;;41.63;10.87;;;3.00;35.70;;;;;;5044277;28;20910;-59
2022/04/11 03:46:10;;;;;;;43.67;12.00;;;3.00;35.70;;;;;;5045593;28;20991;-59
2022/04/11 03:48:36;;;;;;;43.33;11.70;;;3.00;35.80;;;;;;5043701;28;20458;-59
2022/04/11 03:51:03;;;;;;;45.47;11.70;;;3.00;35.90;;;;;;5042951;28;20979;-58
2022/04/11 03:53:30;;;;;;;44.90;12.03;;;3.00;35.80;;;;;;5045198;28;20489;-59
2022/04/11 03:55:57;;;;;;;47.30;14.00;;;3.00;36.00;;;;;;5058115;28;20467;-61
2022/04/11 03:58:25;;;;;;;48.33;14.20;;;3.00;35.90;;;;;;5052626;28;20466;-58
2022/04/11 04:00:52;;;;;;;44.47;13.87;;;3.00;35.90;;;;;;5038900;28;20478;-65
2022/04/11 04:03:18;;;;;;;45.70;12.53;;;2.90;36.10;;;;;;5043807;28;20484;-61
2022/04/11 04:05:47;;;;;;;44.23;11.80;;;2.90;36.20;;;;;;5039339;28;20462;-58
2022/04/11 04:08:17;;;;;;;44.90;12.30;;;2.90;36.00;;;;;;5051560;28;21024;-58
2022/04/11 04:10:44;;;;;;;42.77;11.57;;;2.90;36.20;;;;;;5055906;28;20865;-57
2022/04/11 04:13:10;;;;;;;45.37;12.37;;;2.90;36.10;;;;;;5040976;28;20494;-58
2022/04/11 04:15:39;;;;;;;43.60;13.83;;;2.90;36.00;;;;;;5048330;28;20457;-57
2022/04/11 04:18:06;;;;;;;47.10;14.13;;;2.90;36.20;;;;;;5048046;28;20454;-57
2022/04/11 04:20:33;;;;;;;49.33;13.87;;;2.80;36.10;;;;;;5057024;28;20828;-58
2022/04/11 04:23:00;;;;;;;46.20;14.97;;;2.80;36.30;;;;;;5050797;28;20499;-58
2022/04/11 04:25:26;;;;;;;45.50;12.93;;;2.80;36.50;;;;;;5040697;28;20465;-58
2022/04/11 04:27:53;;;;;;;51.00;14.87;;;2.80;36.80;;;;;;5048884;28;20472;-58
2022/04/11 04:30:20;;;;;;;48.03;14.17;;;2.80;36.60;;;;;;5047203;28;20485;-61
2022/04/11 04:32:48;;;;;;;47.87;14.30;;;2.80;36.90;;;;;;5043994;28;20492;-60
2022/04/11 04:35:16;;;;;;;45.87;14.90;;;2.80;36.80;;;;;;5041957;28;20454;-59
2022/04/11 04:37:42;;;;;;;47.60;15.27;;;2.80;36.60;;;;;;5042751;28;20479;-58
2022/04/11 04:40:10;;;;;;;46.60;15.07;;;2.80;36.70;;;;;;5046033;28;20454;-61
2022/04/11 04:42:37;;;;;;;47.00;16.63;;;2.80;36.80;;;;;;5050426;28;20526;-60
2022/04/11 04:45:05;;;;;;;46.80;14.63;;;2.80;36.80;;;;;;5044997;28;20974;-60
2022/04/11 04:47:32;;;;;;;44.93;13.93;;;2.80;36.90;;;;;;5042592;28;20461;-60
2022/04/11 04:50:01;;;;;;;49.40;16.20;;;2.80;37.00;;;;;;5046649;28;20485;-59
2022/04/11 04:52:28;;;;;;;46.63;15.10;;;2.80;37.00;;;;;;5050508;28;20882;-59
2022/04/11 04:54:55;;;;;;;48.80;14.20;;;2.90;37.10;;;;;;5050040;28;20505;-58
2022/04/11 04:57:22;;;;;;;49.83;14.43;;;2.90;37.70;;;;;;5052983;28;20454;-59
2022/04/11 04:59:48;;;;;;;46.90;16.33;;;2.90;37.40;;;;;;5043994;28;20470;-59
2022/04/11 05:02:15;;;;;;;48.23;16.50;;;2.90;37.40;;;;;;5038927;28;20491;-59
2022/04/11 05:04:42;;;;;;;48.00;14.83;;;2.90;37.60;;;;;;5045773;28;21140;-59
2022/04/11 05:07:10;;;;;;;47.43;14.43;;;3.00;37.40;;;;;;5046073;28;20462;-59
2022/04/11 05:09:37;;;;;;;54.90;14.50;;;3.00;37.50;;;;;;5054601;28;20468;-59
2022/04/11 05:12:05;;;;;;;47.90;15.50;;;3.10;37.70;;;;;;5042940;28;20470;-59
2022/04/11 05:14:32;;;;;;;49.93;15.43;;;3.10;37.60;;;;;;5049364;28;21137;-62
2022/04/11 05:16:59;;;;;;;47.17;14.80;;;3.20;37.60;;;;;;5055662;28;20489;-59
2022/04/11 05:19:26;;;;;;;49.20;14.83;;;3.30;37.50;;;;;;5046420;28;20458;-59
2022/04/11 05:21:53;;;;;;;45.40;13.90;;;3.30;37.20;;;;;;5054844;28;20465;-59
2022/04/11 05:24:22;;;;;;;44.57;12.80;;;3.40;37.00;;;;;;5052283;28;20489;-58
2022/04/11 05:26:48;;;;;;;45.90;14.67;;;3.50;36.80;;;;;;5046310;28;20473;-59
2022/04/11 05:29:15;;;;;;;48.53;15.47;;;3.60;37.30;;;;;;5047478;28;20461;-59
2022/04/11 05:31:42;;;;;;;48.17;16.30;;;3.70;36.60;;;;;;5044961;28;21350;-59
2022/04/11 05:34:09;;;;;;;52.87;15.17;;;3.80;36.40;;;;;;5038705;28;20489;-58
2022/04/11 05:36:35;;;;;;;46.33;14.67;;;3.90;36.50;;;;;;5041386;28;20462;-58
2022/04/11 05:39:02;;;;;;;46.27;14.77;;;3.90;36.30;;;;;;5045765;28;20465;-59
2022/04/11 05:41:30;;;;;;;46.77;14.27;;;4.00;36.10;;;;;;5043013;28;20462;-59
2022/04/11 05:43:57;;;;;;;48.93;14.80;;;4.10;36.00;;;;;;5046686;28;20488;-61
2022/04/11 05:46:24;;;;;;;45.73;15.13;;;4.20;35.90;;;;;;5050054;28;20466;-61
2022/04/11 05:48:50;;;;;;;47.43;15.13;;;4.20;35.70;;;;;;5056573;28;20466;-61
2022/04/11 05:51:17;;;;;;;47.77;15.00;;;4.30;35.50;;;;;;5048619;28;20474;-60
2022/04/11 05:53:44;;;;;;;44.80;14.17;;;4.30;35.30;;;;;;5041731;28;21148;-60
2022/04/11 05:56:10;;;;;;;44.80;14.20;;;4.40;35.20;;;;;;5045350;28;20466;-60
2022/04/11 05:58:39;;;;;;;53.53;14.67;;;4.40;35.00;;;;;;5046779;28;20470;-58
2022/04/11 06:01:05;;;;;;;45.77;13.67;;;4.40;34.80;;;;;;5045476;28;20478;-59
2022/04/11 06:03:32;;;;;;;45.50;14.23;;;4.40;34.70;;;;;;5048886;28;20477;-57
2022/04/11 06:05:59;;;;;;;46.43;13.00;;;4.40;34.80;;;;;;5046813;28;20990;-59
2022/04/11 06:08:25;;;;;;;46.93;14.63;;;4.40;34.90;;;;;;5037819;28;20462;-59
2022/04/11 06:10:52;;;;;;;44.83;14.33;;;4.50;34.90;;;;;;5040257;28;20490;-58
2022/04/11 06:13:19;;;;;;;44.97;14.30;;;4.60;34.80;;;;;;5043722;28;20497;-59
2022/04/11 06:15:47;;;;;;;44.23;15.10;;;4.90;34.80;;;;;;5050724;28;20474;-59
2022/04/11 06:18:14;;;;;;;45.87;12.77;;;5.10;34.60;;;;;;5047977;28;20458;-59
2022/04/11 06:20:43;;;;;;;49.13;14.30;;;5.40;34.10;;;;;;5046363;28;20455;-59
2022/04/11 06:23:10;;;;;;;45.87;14.50;;;5.70;33.60;;;;;;5044569;28;21248;-59
2022/04/11 06:25:36;;;;;;;43.87;12.13;;;6.10;32.90;;;;;;5051882;28;20481;-59
2022/04/11 06:28:04;;;;;;;43.83;12.50;;;6.50;31.90;;;;;;5045084;28;20474;-59
2022/04/11 06:30:30;;;;;;;45.83;12.80;;;6.90;30.80;;;;;;5042575;28;20500;-59
2022/04/11 06:32:59;;;;;;;45.40;16.10;;;7.20;29.70;;;;;;5046936;28;20482;-58
2022/04/11 06:35:26;;;;;;;45.57;15.23;;;7.70;28.90;;;;;;5047803;28;21174;-60
2022/04/11 06:37:52;;;;;;;44.17;13.70;;;8.20;27.70;;;;;;5039701;28;20462;-59
2022/04/11 06:40:19;;;;;;;40.30;11.20;;;8.50;26.80;;;;;;5048077;28;20801;-59
2022/04/11 06:42:46;;;;;;;42.30;13.40;;;9.40;25.60;;;;;;5044509;28;20482;-59
2022/04/11 06:45:14;;;;;;;41.37;11.00;;;10.50;23.20;;;;;;5044871;28;20481;-59
2022/04/11 06:47:42;;;;;;;41.97;12.50;;;11.70;20.00;;;;;;5041515;28;20495;-58
2022/04/11 06:50:10;;;;;;;41.40;12.20;;;13.10;17.40;;;;;;5045502;28;20482;-60
2022/04/11 06:52:37;;;;;;;41.60;11.50;;;14.00;15.60;;;;;;5045115;28;20482;-59
2022/04/11 06:55:05;;;;;;;36.33;9.90;;;14.70;14.70;;;;;;5048189;28;21069;-60
2022/04/11 06:57:32;;;;;;;38.30;11.47;;;16.60;12.20;;;;;;5046001;28;20461;-59
2022/04/11 06:59:58;;;;;;;39.23;11.43;;;18.50;10.10;;;;;;5039728;28;20470;-60
2022/04/11 07:02:25;;;;;;;33.70;10.00;;;20.80;6.00;;;;;;5042166;28;20479;-59
2022/04/11 07:04:52;;;;;;;32.80;8.83;;;22.50;3.00;;;;;;5038483;28;20461;-60
2022/04/11 07:07:20;;;;;;;32.87;9.13;;;23.80;1.50;;;;;;5040540;28;20465;-61
2022/04/11 07:09:47;;;;;;;33.80;9.60;;;25.30;1.00;;;;;;5049658;28;20531;-60
2022/04/11 07:12:14;;;;;;;30.77;8.40;;;26.80;1.00;;;;;;5047104;28;20481;-61
2022/04/11 07:14:40;;;;;;;30.30;7.70;;;28.50;1.00;;;;;;5041542;28;20485;-61
2022/04/11 07:17:07;;;;;;;29.23;7.97;;;30.00;1.00;;;;;;5047145;28;20462;-62
2022/04/11 07:19:34;;;;;;;29.10;7.53;;;31.40;1.00;;;;;;5047156;28;20462;-61
2022/04/11 07:22:00;;;;;;;28.90;7.87;;;32.70;1.00;;;;;;5044357;28;20454;-62
2022/04/11 07:24:29;;;;;;;29.53;8.07;;;33.70;1.00;;;;;;5044677;28;20504;-62
2022/04/11 07:26:55;;;;;;;28.80;8.00;;;34.70;1.00;;;;;;5049009;28;20469;-63
2022/04/11 07:29:22;;;;;;;26.80;7.43;;;35.50;1.00;;;;;;5043755;28;20478;-62
2022/04/11 07:31:49;;;;;;;27.23;7.50;;;36.30;1.00;;;;;;5038994;28;20502;-62
2022/04/11 07:34:15;;;;;;;27.30;7.27;;;37.00;1.00;;;;;;5047551;28;20482;-62
2022/04/11 07:36:42;;;;;;;28.73;7.10;;;37.60;1.00;;;;;;5059034;28;20466;-63
2022/04/11 07:39:09;;;;;;;26.93;7.47;;;38.20;1.00;;;;;;5052053;28;20477;-55
2022/04/11 07:41:37;;;;;;;26.90;7.40;;;38.70;1.00;;;;;;5043414;28;20846;-57
2022/04/11 07:44:05;;;;;;;25.97;6.83;;;39.10;1.00;;;;;;5053416;28;20486;-56
2022/04/11 07:46:32;;;;;;;25.70;7.00;;;39.60;1.00;;;;;;5041807;28;20975;-56
2022/04/11 07:48:58;;;;;;;28.13;7.43;;;40.10;1.00;;;;;;5039624;28;20454;-56
2022/04/11 07:51:25;;;;;;;25.90;6.70;;;40.50;1.00;;;;;;5039273;28;20520;-56
2022/04/11 07:53:52;;;;;;;25.07;6.17;;;41.00;1.00;;;;;;5051843;28;20948;-56
2022/04/11 07:56:18;;;;;;;24.97;5.80;;;41.60;1.00;;;;;;5050760;28;20462;-56
2022/04/11 07:58:47;;;;;;;24.80;5.97;;;41.90;1.00;;;;;;5053637;28;20453;-56
2022/04/11 08:01:16;;;;;;;23.63;5.27;;;42.10;1.00;;;;;;5046886;28;20475;-56
2022/04/11 08:03:44;;;;;;;24.40;5.83;;;42.50;1.00;;;;;;5050343;28;20489;-57
2022/04/11 08:06:11;;;;;;;23.37;5.47;;;42.90;1.00;;;;;;5050918;28;20459;-56
2022/04/11 08:08:37;;;;;;;24.13;5.80;;;43.20;1.00;;;;;;5051936;28;20453;-57
2022/04/11 08:11:04;;;;;;;23.27;5.23;;;43.70;1.00;;;;;;5045556;28;20478;-56
2022/04/11 08:13:31;;;;;;;23.10;3.83;;;44.00;1.00;;;;;;5049555;28;20493;-56
2022/04/11 08:15:59;;;;;;;22.87;3.93;;;44.10;1.00;;;;;;5049351;28;20462;-56
2022/04/11 08:18:26;;;;;;;23.23;3.60;;;43.40;1.00;;;;;;5051887;28;20473;-56
2022/04/11 08:20:52;;;;;;;24.17;3.60;;;43.10;1.00;;;;;;5052453;28;20463;-56
2022/04/11 08:23:19;;;;;;;22.03;3.07;;;42.70;1.00;;;;;;5052132;28;20500;-57
2022/04/11 08:25:48;;;;;;;22.10;2.80;;;42.40;1.00;;;;;;5052988;28;20996;-57
2022/04/11 08:28:14;;;;;;;22.80;3.03;;;42.20;1.00;;;;;;5051374;28;20466;-56
2022/04/11 08:30:41;;;;;;;23.40;2.80;;;41.90;1.00;;;;;;5047807;28;20473;-57
2022/04/11 08:33:10;;;;;;;24.37;3.60;;;41.60;1.00;;;;;;5057020;28;20488;-57
2022/04/11 08:35:37;;;;;;;23.20;2.97;;;41.40;1.00;;;;;;5049191;28;20812;-57
2022/04/11 08:38:03;;;;;;;23.10;2.53;;;40.90;1.00;;;;;;5050930;28;20951;-57
2022/04/11 08:40:31;;;;;;;24.17;2.80;;;40.40;1.00;;;;;;5050644;28;20485;-57
2022/04/11 08:42:59;;;;;;;23.70;2.63;;;40.30;1.00;;;;;;5057658;28;20477;-57
2022/04/11 08:45:28;;;;;;;22.87;2.50;;;39.70;1.00;;;;;;5047591;28;20828;-57
2022/04/11 08:47:56;;;;;;;24.27;2.60;;;39.10;1.00;;;;;;5052374;28;20464;-57
2022/04/11 08:50:25;;;;;;;23.67;2.90;;;39.00;1.00;;;;;;5046972;28;20462;-57
2022/04/11 08:52:53;;;;;;;22.93;2.67;;;39.20;1.00;;;;;;5043429;28;20489;-57
2022/04/11 08:55:20;;;;;;;23.50;2.70;;;39.70;1.00;;;;;;5044465;28;20465;-57
2022/04/11 08:57:48;;;;;;;23.07;2.67;;;40.00;1.00;;;;;;5046717;28;20897;-59
2022/04/11 09:00:16;;;;;;;22.83;2.40;;;40.00;1.00;;;;;;5044584;28;20469;-58
2022/04/11 09:02:45;;;;;;;23.67;2.83;;;40.00;1.00;;;;;;5051780;28;20848;-60
2022/04/11 09:05:12;;;;;;;23.67;2.57;;;39.70;1.00;;;;;;5056698;28;20990;-60
2022/04/11 09:07:51;;;;;;;23.57;2.80;;;39.60;1.00;;;;;;5048135;28;20479;-56
2022/04/11 09:10:20;;;;;;;23.50;2.60;;;39.70;1.00;;;;;;5047845;28;20464;-59
2022/04/11 09:12:48;;;;;;;23.63;2.80;;;39.70;1.00;;;;;;5046698;28;20535;-58
2022/04/11 09:15:15;;;;;;;22.77;2.40;;;40.10;1.00;;;;;;5049534;28;21085;-58
2022/04/11 09:17:42;;;;;;;23.67;2.90;;;40.30;1.00;;;;;;5051086;28;20555;-57
2022/04/11 09:20:11;;;;;;;24.27;2.73;;;39.90;1.00;;;;;;5056788;28;20972;-58
2022/04/11 09:22:38;;;;;;;24.00;2.50;;;38.90;1.00;;;;;;5054391;28;20877;-61
2022/04/11 09:25:13;;;;;;;24.40;2.93;;;38.00;1.00;;;;;;5065044;28;20454;-60
2022/04/11 09:27:40;;;;;;;25.93;2.60;;;38.10;1.00;;;;;;5053648;28;20450;-59
2022/04/11 09:30:22;;;;;;;24.47;2.97;;;38.40;1.00;;;;;;5047936;28;20477;-58
2022/04/11 09:33:01;;;;;;;23.60;2.63;;;39.00;1.00;;;;;;5039549;28;20470;-59
2022/04/11 09:35:30;;;;;;;23.53;2.83;;;39.20;1.00;;;;;;5049687;28;20555;-60
2022/04/11 09:38:08;;;;;;;23.50;2.80;;;39.30;1.00;;;;;;5056999;28;20458;-60
2022/04/11 09:40:44;;;;;;;24.80;2.77;;;39.10;1.00;;;;;;5050151;28;20469;-60
2022/04/11 09:43:12;;;;;;;23.50;2.57;;;39.10;1.00;;;;;;5049899;28;20470;-60
2022/04/11 09:45:44;;;;;;;22.53;1.90;;;39.40;1.00;;;;;;5052139;28;20461;-62
2022/04/11 09:48:15;;;;;;;24.50;2.60;;;39.80;1.00;;;;;;5049216;28;20462;-61
2022/04/11 09:50:42;;;;;;;23.67;2.90;;;38.60;1.00;;;;;;5063653;28;20833;-61
2022/04/11 09:53:11;;;;;;;23.80;2.70;;;38.60;1.00;;;;;;5048940;28;20488;-61
2022/04/11 09:55:38;;;;;;;23.80;2.67;;;39.00;1.00;;;;;;5048433;28;20470;-60
2022/04/11 09:58:07;;;;;;;25.00;3.00;;;39.10;1.00;;;;;;5048890;28;20473;-59
2022/04/11 10:00:35;;;;;;;25.50;2.67;;;38.70;1.00;;;;;;5048916;28;20473;-60
2022/04/11 10:03:03;;;;;;;24.43;2.23;;;38.60;1.00;;;;;;5044880;28;20485;-61
2022/04/11 10:05:31;;;;;;;23.63;2.50;;;38.60;1.00;;;;;;5060743;28;20469;-58
2022/04/11 10:07:58;;;;;;;25.10;3.27;;;38.30;1.00;;;;;;5055224;28;20466;-59
2022/04/11 10:10:25;;;;;;;24.30;3.10;;;38.00;1.00;;;;;;5048579;28;20465;-60
2022/04/11 10:12:53;;;;;;;23.97;2.63;;;37.80;1.00;;;;;;5044830;28;20497;-60
2022/04/11 10:15:22;;;;;;;24.10;2.37;;;37.90;1.00;;;;;;5051200;28;20465;-60
2022/04/11 10:17:49;;;;;;;24.00;2.20;;;38.30;1.00;;;;;;5044612;28;20462;-61
2022/04/11 10:20:24;;;;;;;25.07;2.90;;;38.90;1.00;;;;;;5045866;28;20462;-58
2022/04/11 10:22:56;;;;;;;23.90;2.57;;;38.80;1.00;;;;;;5058382;28;20519;-61
2022/04/11 10:25:24;;;;;;;24.70;2.53;;;38.40;1.00;;;;;;5055654;28;20454;-59
2022/04/11 10:28:15;;;;;;;24.50;2.53;;;38.10;1.00;;;;;;5048105;28;20981;-60
2022/04/11 10:30:44;;;;;;;26.57;2.70;;;38.00;1.00;;;;;;5050630;28;20604;-59
2022/04/11 10:33:11;;;;;;;24.20;2.40;;;37.90;1.00;;;;;;5053029;28;21027;-61
2022/04/11 10:35:41;;;;;;;25.37;3.00;;;37.50;1.00;;;;;;5067170;28;20465;-61
2022/04/11 10:38:10;;;;;;;24.00;2.27;;;36.70;1.00;;;;;;5052948;28;20466;-60
2022/04/11 10:40:38;;;;;;;25.97;3.20;;;36.30;1.00;;;;;;5045371;28;20465;-59
2022/04/11 10:43:16;;;;;;;25.63;3.20;;;36.20;1.00;;;;;;5049132;28;20470;-60
2022/04/11 10:45:46;;;;;;;25.17;2.67;;;35.60;1.00;;;;;;5061856;28;20457;-60
2022/04/11 10:48:14;;;;;;;26.20;2.93;;;35.80;1.00;;;;;;5046128;28;20466;-59
2022/04/11 10:50:42;;;;;;;25.10;2.70;;;35.70;1.00;;;;;;5045827;28;20462;-60
2022/04/11 10:53:27;;;;;;;27.60;3.03;;;34.70;1.00;;;;;;5047791;28;20512;-61
2022/04/11 10:55:59;;;;;;;25.30;2.90;;;34.20;1.00;;;;;;5042203;28;20500;-61
2022/04/11 10:58:41;;;;;;;24.87;2.63;;;34.20;1.00;;;;;;5050220;28;20462;-61
2022/04/11 11:01:10;;;;;;;25.37;3.40;;;33.90;1.00;;;;;;5044234;28;20462;-60
2022/04/11 11:03:39;;;;;;;26.20;2.80;;;32.50;1.00;;;;;;5054468;28;20473;-60
2022/04/11 11:06:21;;;;;;;26.80;3.00;;;30.90;1.00;;;;;;5042380;28;20450;-61
2022/04/11 11:08:48;;;;;;;27.30;3.10;;;29.30;1.00;;;;;;5052085;28;20460;-59
2022/04/11 11:11:28;;;;;;;27.20;3.60;;;27.60;1.00;;;;;;5047849;28;20469;-61
2022/04/11 11:13:56;;;;;;;27.40;2.90;;;25.80;1.00;;;;;;5076473;28;20463;-60
2022/04/11 11:16:35;;;;;;;27.30;3.17;;;24.50;1.00;;;;;;5048293;28;20454;-61
2022/04/11 11:19:17;;;;;;;27.20;2.80;;;23.50;1.00;;;;;;5048312;28;20530;-62
2022/04/11 11:22:05;;;;;;;28.00;3.33;;;22.50;1.00;;;;;;5046644;28;20469;-60
2022/04/11 11:24:32;;;;;;;29.10;3.00;;;21.60;1.00;;;;;;5047328;28;20498;-58
2022/04/11 11:27:03;;;;;;;28.60;2.70;;;21.10;1.00;;;;;;5050451;28;20472;-58
2022/04/11 11:29:32;;;;;;;29.80;3.97;;;20.90;1.00;;;;;;5059110;28;20458;-59
2022/04/11 11:32:02;;;;;;;28.40;3.80;;;20.50;1.00;;;;;;5045733;28;20482;-57
2022/04/11 11:34:30;;;;;;;30.07;3.83;;;20.10;1.00;;;;;;5053794;28;20537;-57
2022/04/11 11:36:59;;;;;;;28.53;3.10;;;19.70;1.00;;;;;;5058594;28;20456;-58
2022/04/11 11:39:27;;;;;;;28.57;3.40;;;19.40;1.00;;;;;;5047691;28;20459;-58
2022/04/11 11:41:57;;;;;;;30.30;3.50;;;19.00;1.00;;;;;;5035843;28;20983;-58
2022/04/11 11:44:24;;;;;;;29.20;2.70;;;18.80;1.00;;;;;;5043359;28;21041;-58
2022/04/11 11:46:55;;;;;;;30.13;3.47;;;18.60;1.00;;;;;;5045754;28;20459;-57
2022/04/11 11:49:24;;;;;;;29.30;3.83;;;18.50;1.00;;;;;;5043608;28;22669;-58
2022/04/11 11:51:54;;;;;;;31.20;3.30;;;18.30;1.00;;;;;;5044925;28;20458;-58
2022/04/11 11:54:35;;;;;;;29.63;3.43;;;18.10;1.00;;;;;;5044534;28;20497;-58
2022/04/11 11:57:02;;;;;;;29.97;3.60;;;18.00;1.00;;;;;;5048826;28;20881;-57
2022/04/11 11:59:29;;;;;;;29.07;3.40;;;18.00;1.00;;;;;;5048044;28;20454;-57
2022/04/11 12:04:40;;;;;;;30.70;3.60;;;17.50;1.00;;;;;;5011049;28;20473;-58
2022/04/11 12:07:07;;;;;;;31.83;4.17;;;17.20;1.00;;;;;;5051139;28;20449;-58
2022/04/11 12:09:35;;;;;;;29.30;3.10;;;17.10;2.10;;;;;;5048320;28;20458;-60
2022/04/11 12:12:04;;;;;;;30.37;3.10;;;17.10;3.60;;;;;;5044557;28;20506;-60
2022/04/11 12:14:31;;;;;;;29.80;3.00;;;17.10;2.50;;;;;;5049810;28;20490;-60
2022/04/11 12:17:01;;;;;;;29.80;3.97;;;17.10;1.60;;;;;;5047809;28;20543;-60
2022/04/11 12:19:36;;;;;;;29.93;3.77;;;16.90;1.60;;;;;;5053188;28;20473;-59
2022/04/11 12:22:16;;;;;;;31.93;3.80;;;16.80;2.10;;;;;;5045402;28;20926;-60
2022/04/11 12:24:43;;;;;;;30.20;3.17;;;16.60;2.20;;;;;;5046013;28;20466;-59
2022/04/11 12:27:14;;;;;;;29.70;3.53;;;16.50;2.30;;;;;;5046782;28;20546;-59
2022/04/11 12:29:41;;;;;;;30.00;3.07;;;16.60;3.10;;;;;;5053604;28;20460;-60
2022/04/11 12:32:13;;;;;;;29.33;3.63;;;16.50;4.00;;;;;;5051643;28;20469;-60
2022/04/11 12:34:42;;;;;;;30.33;3.77;;;16.50;2.70;;;;;;5041774;28;20467;-61
2022/04/11 12:37:11;;;;;;;31.30;3.10;;;16.40;3.30;;;;;;5043512;28;20478;-59
2022/04/11 12:39:56;;;;;;;30.67;3.60;;;16.40;3.00;;;;;;5044535;28;20458;-60
2022/04/11 12:42:25;;;;;;;29.97;3.37;;;16.40;2.70;;;;;;5048045;28;20465;-61
2022/04/11 12:45:02;;;;;;;32.80;3.40;;;16.40;2.50;;;;;;5046492;28;20476;-60
2022/04/11 12:47:29;;;;;;;30.37;3.27;;;16.30;2.80;;;;;;5045733;28;20530;-60
2022/04/11 12:49:57;;;;;;;30.63;3.40;;;16.30;3.00;;;;;;5050073;28;20990;-61
2022/04/11 12:52:26;;;;;;;31.27;3.27;;;16.30;2.40;;;;;;5052042;28;20848;-62